createdAt,value
2017-08-08T00:01:21.140Z,18.40
2017-08-08T00:03:48.576Z,18.20
2017-08-08T00:06:16.073Z,18.10
2017-08-08T00:08:43.517Z,18.20
2017-08-08T00:11:10.969Z,18.10
2017-08-08T00:13:38.425Z,18.10
2017-08-08T00:16:06.634Z,17.80
2017-08-08T00:18:34.079Z,17.80
2017-08-08T00:21:01.536Z,17.80
2017-08-08T00:23:28.996Z,17.80
2017-08-08T00:25:56.469Z,17.70
2017-08-08T00:28:23.912Z,17.70
2017-08-08T00:30:51.373Z,17.70
2017-08-08T00:33:18.958Z,17.80
2017-08-08T00:35:46.700Z,17.80
2017-08-08T00:38:14.643Z,17.80
2017-08-08T00:40:42.127Z,17.80
2017-08-08T00:43:10.320Z,17.90
2017-08-08T00:45:37.772Z,17.90
2017-08-08T00:48:05.213Z,17.80
2017-08-08T00:50:32.685Z,17.80
2017-08-08T00:53:00.134Z,17.80
2017-08-08T00:55:27.596Z,17.90
2017-08-08T00:57:55.840Z,17.70
2017-08-08T01:00:23.385Z,17.70
2017-08-08T01:02:51.621Z,17.80
2017-08-08T01:05:19.142Z,17.80
2017-08-08T01:07:46.625Z,17.90
2017-08-08T01:10:14.097Z,17.90
2017-08-08T01:12:41.532Z,17.90
2017-08-08T01:15:09.743Z,18.00
2017-08-08T01:17:37.181Z,18.00
2017-08-08T01:20:04.644Z,18.00
2017-08-08T01:22:32.064Z,17.90
2017-08-08T01:24:59.528Z,18.00
2017-08-08T01:27:26.995Z,18.00
2017-08-08T01:29:54.613Z,18.00
2017-08-08T01:32:22.120Z,17.70
2017-08-08T01:34:49.588Z,17.60
2017-08-08T01:37:17.053Z,17.70
2017-08-08T01:39:44.519Z,17.70
2017-08-08T01:42:11.953Z,17.80
2017-08-08T01:44:40.174Z,17.80
2017-08-08T01:47:07.592Z,17.80
2017-08-08T01:49:35.048Z,17.80
2017-08-08T01:52:02.483Z,17.90
2017-08-08T01:54:29.929Z,17.90
2017-08-08T01:56:57.385Z,17.90
2017-08-08T01:59:24.827Z,17.90
2017-08-08T02:01:52.298Z,17.90
2017-08-08T02:04:19.754Z,18.00
2017-08-08T02:06:47.301Z,17.90
2017-08-08T02:09:15.563Z,17.60
2017-08-08T02:11:43.815Z,17.50
2017-08-08T02:14:11.293Z,17.50
2017-08-08T02:16:38.750Z,17.40
2017-08-08T02:19:06.208Z,17.50
2017-08-08T02:21:33.695Z,17.50
2017-08-08T02:24:01.147Z,17.50
2017-08-08T02:26:29.352Z,17.30
2017-08-08T02:28:56.804Z,17.30
2017-08-08T02:31:24.253Z,17.20
2017-08-08T02:33:51.768Z,17.10
2017-08-08T02:36:19.218Z,17.10
2017-08-08T02:38:46.708Z,17.20
2017-08-08T02:41:14.174Z,17.20
2017-08-08T02:43:41.700Z,17.20
2017-08-08T02:46:09.148Z,17.30
2017-08-08T02:48:37.373Z,17.30
2017-08-08T02:51:04.831Z,17.20
2017-08-08T02:53:33.076Z,17.20
2017-08-08T02:56:00.532Z,17.20
2017-08-08T02:58:27.975Z,17.20
2017-08-08T03:00:55.427Z,17.10
2017-08-08T03:03:22.883Z,17.20
2017-08-08T03:05:51.105Z,17.20
2017-08-08T03:08:18.560Z,17.20
2017-08-08T03:10:46.020Z,17.10
2017-08-08T03:13:15.287Z,17.10
2017-08-08T03:15:42.764Z,17.00
2017-08-08T03:18:11.029Z,17.00
2017-08-08T03:20:39.275Z,17.00
2017-08-08T03:23:06.728Z,17.00
2017-08-08T03:25:34.924Z,16.90
2017-08-08T03:28:02.380Z,16.90
2017-08-08T03:30:29.864Z,16.90
2017-08-08T03:32:57.328Z,16.90
2017-08-08T03:35:25.573Z,16.80
2017-08-08T03:37:53.020Z,16.80
2017-08-08T03:40:21.285Z,16.80
2017-08-08T03:42:48.837Z,16.80
2017-08-08T03:45:17.150Z,16.70
2017-08-08T03:47:44.593Z,16.70
2017-08-08T03:50:12.070Z,16.60
2017-08-08T03:52:39.609Z,16.50
2017-08-08T03:55:07.064Z,16.40
2017-08-08T03:57:35.319Z,16.40
2017-08-08T04:00:02.778Z,16.30
2017-08-08T04:02:30.273Z,16.30
2017-08-08T04:04:57.714Z,16.40
2017-08-08T04:07:25.197Z,16.40
2017-08-08T04:09:53.465Z,16.40
2017-08-08T04:12:21.663Z,16.40
2017-08-08T04:14:49.155Z,16.40
2017-08-08T04:17:16.588Z,16.50
2017-08-08T04:19:44.050Z,16.50
2017-08-08T04:22:11.488Z,16.50
2017-08-08T04:24:39.703Z,16.50
2017-08-08T04:27:07.173Z,16.50
2017-08-08T04:29:34.623Z,16.50
2017-08-08T04:32:02.189Z,16.60
2017-08-08T04:34:30.401Z,16.60
2017-08-08T04:36:57.866Z,16.60
2017-08-08T04:39:25.424Z,16.70
2017-08-08T04:41:52.960Z,16.70
2017-08-08T04:44:20.425Z,16.70
2017-08-08T04:46:48.624Z,16.80
2017-08-08T04:49:16.129Z,16.80
2017-08-08T04:51:43.678Z,16.90
2017-08-08T04:54:11.932Z,16.90
2017-08-08T04:56:40.189Z,16.90
2017-08-08T04:59:07.633Z,16.90
2017-08-08T05:01:35.068Z,17.00
2017-08-08T05:04:02.512Z,17.00
2017-08-08T05:06:29.981Z,17.10
2017-08-08T05:08:57.519Z,17.10
2017-08-08T05:11:25.717Z,17.10
2017-08-08T05:13:53.261Z,17.10
2017-08-08T05:16:20.704Z,17.10
2017-08-08T05:18:48.178Z,17.20
2017-08-08T05:21:15.729Z,17.30
2017-08-08T05:23:43.188Z,17.30
2017-08-08T05:26:11.405Z,17.50
2017-08-08T05:28:38.852Z,17.40
2017-08-08T05:31:06.322Z,17.40
2017-08-08T05:33:33.919Z,17.50
2017-08-08T05:36:01.375Z,17.60
2017-08-08T05:38:28.832Z,17.60
2017-08-08T05:40:56.447Z,17.60
2017-08-08T05:43:23.897Z,17.80
2017-08-08T05:45:51.456Z,18.10
2017-08-08T05:48:18.917Z,18.20
2017-08-08T05:50:46.374Z,18.40
2017-08-08T05:53:14.116Z,18.80
2017-08-08T05:55:41.572Z,19.10
2017-08-08T05:58:09.158Z,19.50
2017-08-08T06:00:36.683Z,19.80
2017-08-08T06:03:04.881Z,19.90
2017-08-08T06:05:32.325Z,19.90
2017-08-08T06:08:01.183Z,19.90
2017-08-08T06:10:28.736Z,19.90
2017-08-08T06:12:56.200Z,20.20
2017-08-08T06:15:24.409Z,20.60
2017-08-08T06:17:51.885Z,20.50
2017-08-08T06:20:20.126Z,20.70
2017-08-08T06:22:47.654Z,20.70
2017-08-08T06:25:15.119Z,21.10
2017-08-08T06:27:42.578Z,21.20
2017-08-08T06:30:10.041Z,21.60
2017-08-08T06:32:37.486Z,21.60
2017-08-08T06:35:04.990Z,21.70
2017-08-08T06:37:33.237Z,22.70
2017-08-08T06:40:01.469Z,23.30
2017-08-08T06:42:28.917Z,23.30
2017-08-08T06:44:56.474Z,23.00
2017-08-08T06:47:23.935Z,22.90
2017-08-08T06:49:51.385Z,22.90
2017-08-08T06:52:18.933Z,22.90
2017-08-08T06:54:46.472Z,23.00
2017-08-08T06:57:13.916Z,23.50
2017-08-08T06:59:41.417Z,23.60
2017-08-08T07:02:08.860Z,23.70
2017-08-08T07:04:36.305Z,24.10
2017-08-08T07:07:03.796Z,23.70
2017-08-08T07:09:31.241Z,23.70
2017-08-08T07:11:58.771Z,23.90
2017-08-08T07:14:26.219Z,24.20
2017-08-08T07:16:53.689Z,24.40
2017-08-08T07:19:21.900Z,24.90
2017-08-08T07:21:49.356Z,24.90
2017-08-08T07:24:16.882Z,25.60
2017-08-08T07:26:44.338Z,25.90
2017-08-08T07:29:11.916Z,26.00
2017-08-08T07:31:39.358Z,26.10
2017-08-08T07:34:06.797Z,26.30
2017-08-08T07:36:34.358Z,26.60
2017-08-08T07:39:02.570Z,26.40
2017-08-08T07:41:30.013Z,26.30
2017-08-08T07:43:57.455Z,26.10
2017-08-08T07:46:24.922Z,26.40
2017-08-08T07:48:52.352Z,26.20
2017-08-08T07:51:19.793Z,26.30
2017-08-08T07:53:47.266Z,26.80
2017-08-08T07:56:14.780Z,26.80
2017-08-08T07:58:42.208Z,26.70
2017-08-08T08:01:09.652Z,26.70
2017-08-08T08:03:37.186Z,26.70
2017-08-08T08:06:04.655Z,26.70
2017-08-08T08:08:32.849Z,26.70
2017-08-08T08:11:00.291Z,26.70
2017-08-08T08:13:27.739Z,26.50
2017-08-08T08:15:55.335Z,26.40
2017-08-08T08:18:22.878Z,26.50
2017-08-08T08:20:50.336Z,26.40
2017-08-08T08:23:18.614Z,26.50
2017-08-08T08:25:46.144Z,26.50
2017-08-08T08:28:14.354Z,26.80
2017-08-08T08:30:41.817Z,26.80
2017-08-08T08:33:09.255Z,26.80
2017-08-08T08:35:36.704Z,26.80
2017-08-08T08:38:04.264Z,26.70
2017-08-08T08:40:32.509Z,26.10
2017-08-08T08:43:00.071Z,26.10
2017-08-08T08:45:28.422Z,26.10
2017-08-08T08:47:55.863Z,26.10
2017-08-08T08:50:23.318Z,26.30
2017-08-08T08:52:50.749Z,26.10
2017-08-08T08:55:18.305Z,26.20
2017-08-08T08:57:46.197Z,26.20
2017-08-08T09:00:14.432Z,26.10
2017-08-08T09:02:41.873Z,26.10
2017-08-08T09:05:09.324Z,26.50
2017-08-08T09:07:36.761Z,27.00
2017-08-08T09:10:04.302Z,27.50
2017-08-08T09:12:31.756Z,27.70
2017-08-08T09:14:59.199Z,27.60
2017-08-08T09:17:26.637Z,27.70
2017-08-08T09:19:54.086Z,28.00
2017-08-08T09:22:21.617Z,28.10
2017-08-08T09:24:49.044Z,27.70
2017-08-08T09:27:16.477Z,27.90
2017-08-08T09:29:43.952Z,28.10
2017-08-08T09:32:11.393Z,28.50
2017-08-08T09:34:38.831Z,28.90
2017-08-08T09:37:06.390Z,28.90
2017-08-08T09:39:33.827Z,28.50
2017-08-08T09:42:01.284Z,28.40
2017-08-08T09:44:28.740Z,28.60
2017-08-08T09:46:56.972Z,29.10
2017-08-08T09:49:24.577Z,29.10
2017-08-08T09:51:52.064Z,29.00
2017-08-08T09:54:19.502Z,29.20
2017-08-08T09:56:47.013Z,30.10
2017-08-08T09:59:14.438Z,30.90
2017-08-08T10:01:41.919Z,31.60
2017-08-08T10:04:09.372Z,31.90
2017-08-08T10:06:36.888Z,31.70
2017-08-08T10:09:04.434Z,31.70
2017-08-08T10:11:31.866Z,32.00
2017-08-08T10:13:59.296Z,32.30
2017-08-08T10:16:26.737Z,32.10
2017-08-08T10:18:54.181Z,31.50
2017-08-08T10:21:22.167Z,31.40
2017-08-08T10:23:49.699Z,31.10
2017-08-08T10:26:17.145Z,30.90
2017-08-08T10:28:44.686Z,30.60
2017-08-08T10:31:12.119Z,30.50
2017-08-08T10:33:39.591Z,30.30
2017-08-08T10:36:07.933Z,30.40
2017-08-08T10:38:35.384Z,30.40
2017-08-08T10:41:02.846Z,31.00
2017-08-08T10:43:31.060Z,31.60
2017-08-08T10:45:58.535Z,31.60
2017-08-08T10:48:25.959Z,31.90
2017-08-08T10:50:53.429Z,32.00
2017-08-08T10:53:21.680Z,32.00
2017-08-08T10:55:49.221Z,32.00
2017-08-08T10:58:16.659Z,31.70
2017-08-08T11:00:44.109Z,31.20
2017-08-08T11:03:11.659Z,30.90
2017-08-08T11:05:39.114Z,30.60
2017-08-08T11:08:07.324Z,29.50
2017-08-08T11:10:34.784Z,29.50
2017-08-08T11:13:02.237Z,29.30
2017-08-08T11:15:29.781Z,29.00
2017-08-08T11:17:57.221Z,28.80
2017-08-08T11:20:24.802Z,28.50
2017-08-08T11:22:52.256Z,28.40
2017-08-08T11:25:19.754Z,28.30
2017-08-08T11:27:47.292Z,28.30
2017-08-08T11:30:14.746Z,28.10
2017-08-08T11:32:42.213Z,28.00
2017-08-08T11:35:10.444Z,27.80
2017-08-08T11:37:38.021Z,27.80
2017-08-08T11:40:06.246Z,27.50
2017-08-08T11:42:33.685Z,27.50
2017-08-08T11:45:01.139Z,27.60
2017-08-08T11:47:28.564Z,27.60
2017-08-08T11:49:56.064Z,27.80
2017-08-08T11:52:23.580Z,27.90
2017-08-08T11:54:51.786Z,27.80
2017-08-08T11:57:19.258Z,27.80
2017-08-08T11:59:46.704Z,27.80
2017-08-08T12:02:14.149Z,27.80
2017-08-08T12:04:41.609Z,27.70
2017-08-08T12:07:09.056Z,27.70
2017-08-08T12:09:37.337Z,27.80
2017-08-08T12:12:04.861Z,27.80
2017-08-08T12:14:32.409Z,27.90
2017-08-08T12:17:00.624Z,28.20
2017-08-08T12:19:29.763Z,28.30
2017-08-08T12:21:57.994Z,28.30
2017-08-08T12:24:25.451Z,28.30
2017-08-08T12:26:52.897Z,28.40
2017-08-08T12:29:21.183Z,28.60
2017-08-08T12:31:48.701Z,28.50
2017-08-08T12:34:16.924Z,28.70
2017-08-08T12:36:44.394Z,28.70
2017-08-08T12:39:11.819Z,28.70
2017-08-08T12:41:39.277Z,28.70
2017-08-08T12:44:06.709Z,28.60
2017-08-08T12:46:34.347Z,28.70
2017-08-08T12:49:01.821Z,28.50
2017-08-08T12:51:30.024Z,28.50
2017-08-08T12:53:57.460Z,28.50
2017-08-08T12:56:24.916Z,28.40
2017-08-08T12:58:52.416Z,28.30
2017-08-08T13:01:20.677Z,28.40
2017-08-08T13:03:48.881Z,28.30
2017-08-08T13:06:16.377Z,28.30
2017-08-08T13:08:44.579Z,28.50
2017-08-08T13:11:12.060Z,28.40
2017-08-08T13:13:39.498Z,28.40
2017-08-08T13:16:07.056Z,28.50
2017-08-08T13:18:34.613Z,28.50
2017-08-08T13:21:02.882Z,28.50
2017-08-08T13:23:31.090Z,28.50
2017-08-08T13:25:58.557Z,28.40
2017-08-08T13:28:26.008Z,28.40
2017-08-08T13:30:53.573Z,28.40
2017-08-08T13:33:21.041Z,28.40
2017-08-08T13:35:48.523Z,28.30
2017-08-08T13:38:15.973Z,28.20
2017-08-08T13:40:43.444Z,28.10
2017-08-08T13:43:11.640Z,27.90
2017-08-08T13:45:39.103Z,27.80
2017-08-08T13:48:06.552Z,27.70
2017-08-08T13:50:33.985Z,27.60
2017-08-08T13:53:01.429Z,27.50
2017-08-08T13:55:28.857Z,27.50
2017-08-08T13:57:56.297Z,27.50
2017-08-08T14:00:23.798Z,27.60
2017-08-08T14:02:51.295Z,27.60
2017-08-08T14:05:18.838Z,27.60
2017-08-08T14:07:46.320Z,27.60
2017-08-08T14:10:13.781Z,27.70
2017-08-08T14:12:41.240Z,27.80
2017-08-08T14:15:09.574Z,27.40
2017-08-08T14:17:37.150Z,27.40
2017-08-08T14:20:05.421Z,27.00
2017-08-08T14:22:32.867Z,27.00
2017-08-08T14:25:00.313Z,27.00
2017-08-08T14:27:27.740Z,26.90
2017-08-08T14:29:55.989Z,26.80
2017-08-08T14:32:23.423Z,26.80
2017-08-08T14:34:50.973Z,26.60
2017-08-08T14:37:19.451Z,26.30
2017-08-08T14:39:47.685Z,26.30
2017-08-08T14:42:15.140Z,26.20
2017-08-08T14:44:42.576Z,26.10
2017-08-08T14:47:10.122Z,26.10
2017-08-08T14:49:37.593Z,25.90
2017-08-08T14:52:05.846Z,25.60
2017-08-08T14:54:34.075Z,25.70
2017-08-08T14:57:01.501Z,25.70
2017-08-08T14:59:28.967Z,25.70
2017-08-08T15:01:56.405Z,25.60
2017-08-08T15:04:23.955Z,25.60
2017-08-08T15:06:51.402Z,25.60
2017-08-08T15:09:18.833Z,25.40
2017-08-08T15:11:46.456Z,25.20
2017-08-08T15:14:13.913Z,25.20
2017-08-08T15:16:41.480Z,25.20
2017-08-08T15:19:08.930Z,25.20
2017-08-08T15:21:36.361Z,25.00
2017-08-08T15:24:03.918Z,25.00
2017-08-08T15:26:32.133Z,24.60
2017-08-08T15:28:59.563Z,24.60
2017-08-08T15:31:27.007Z,24.60
2017-08-08T15:33:54.437Z,24.50
2017-08-08T15:36:21.882Z,24.50
2017-08-08T15:38:49.396Z,24.30
2017-08-08T15:41:17.622Z,24.10
2017-08-08T15:43:45.117Z,24.00
2017-08-08T15:46:13.324Z,23.90
2017-08-08T15:48:40.771Z,23.90
2017-08-08T15:51:08.240Z,23.90
2017-08-08T15:53:35.658Z,23.90
2017-08-08T15:56:03.109Z,23.80
2017-08-08T15:58:30.557Z,23.70
2017-08-08T16:00:58.234Z,23.70
2017-08-08T16:03:26.092Z,23.60
2017-08-08T16:05:53.622Z,23.50
2017-08-08T16:08:21.100Z,23.30
2017-08-08T16:10:49.353Z,23.10
2017-08-08T16:13:16.816Z,23.10
2017-08-08T16:15:45.030Z,23.00
2017-08-08T16:18:12.491Z,23.00
2017-08-08T16:20:40.763Z,23.00
2017-08-08T16:23:08.276Z,23.00
2017-08-08T16:25:35.735Z,23.00
2017-08-08T16:28:03.180Z,23.00
2017-08-08T16:30:30.721Z,23.10
2017-08-08T16:32:58.244Z,23.10
2017-08-08T16:35:25.890Z,23.10
2017-08-08T16:37:53.477Z,23.00
2017-08-08T16:40:20.925Z,23.10
2017-08-08T16:42:49.191Z,23.20
2017-08-08T16:45:17.397Z,23.20
2017-08-08T16:47:44.827Z,23.10
2017-08-08T16:50:12.292Z,23.20
2017-08-08T16:52:39.737Z,23.20
2017-08-08T16:55:07.385Z,23.10
2017-08-08T16:57:34.820Z,23.10
2017-08-08T17:00:02.278Z,23.10
2017-08-08T17:02:29.712Z,23.10
2017-08-08T17:04:57.145Z,23.00
2017-08-08T17:07:24.612Z,23.00
2017-08-08T17:09:52.045Z,22.90
2017-08-08T17:12:19.494Z,22.50
2017-08-08T17:14:46.937Z,22.30
2017-08-08T17:17:14.371Z,22.10
2017-08-08T17:19:42.757Z,22.00
2017-08-08T17:22:10.956Z,21.80
2017-08-08T17:24:38.399Z,21.80
2017-08-08T17:27:05.835Z,21.60
2017-08-08T17:29:33.272Z,21.60
2017-08-08T17:32:00.757Z,21.50
2017-08-08T17:34:28.217Z,21.30
2017-08-08T17:36:55.661Z,21.40
2017-08-08T17:39:23.099Z,21.30
2017-08-08T17:41:50.540Z,21.40
2017-08-08T17:44:18.084Z,21.30
2017-08-08T17:46:45.551Z,21.30
2017-08-08T17:49:13.877Z,21.20
2017-08-08T17:51:41.341Z,21.20
2017-08-08T17:54:08.801Z,21.10
2017-08-08T17:56:37.006Z,21.10
2017-08-08T17:59:04.489Z,21.10
2017-08-08T18:01:31.922Z,21.10
2017-08-08T18:03:59.375Z,21.10
2017-08-08T18:06:26.800Z,21.10
2017-08-08T18:08:54.266Z,21.10
2017-08-08T18:11:21.716Z,21.00
2017-08-08T18:13:49.969Z,20.70
2017-08-08T18:16:17.425Z,20.70
2017-08-08T18:18:45.633Z,20.50
2017-08-08T18:21:13.090Z,20.50
2017-08-08T18:23:40.571Z,20.40
2017-08-08T18:26:08.025Z,20.40
2017-08-08T18:28:35.461Z,20.40
2017-08-08T18:31:03.655Z,20.50
2017-08-08T18:33:31.092Z,20.50
2017-08-08T18:35:58.533Z,20.50
2017-08-08T18:38:25.967Z,20.40
2017-08-08T18:40:53.481Z,20.30
2017-08-08T18:43:21.001Z,20.20
2017-08-08T18:45:48.466Z,20.10
2017-08-08T18:48:15.910Z,20.00
2017-08-08T18:50:43.356Z,19.90
2017-08-08T18:53:11.617Z,19.90
2017-08-08T18:55:39.860Z,20.00
2017-08-08T18:58:07.305Z,20.00
2017-08-08T19:00:34.757Z,20.00
2017-08-08T19:03:02.281Z,20.00
2017-08-08T19:05:29.725Z,20.00
2017-08-08T19:07:57.190Z,20.00
2017-08-08T19:10:24.622Z,19.90
2017-08-08T19:12:52.065Z,19.90
2017-08-08T19:15:19.500Z,19.90
2017-08-08T19:17:46.957Z,19.90
2017-08-08T19:20:14.516Z,19.90
2017-08-08T19:22:42.758Z,19.90
2017-08-08T19:25:10.211Z,19.80
2017-08-08T19:27:37.649Z,19.80
2017-08-08T19:30:05.132Z,19.70
2017-08-08T19:32:32.609Z,19.70
2017-08-08T19:35:00.107Z,19.80
2017-08-08T19:37:27.633Z,19.80
2017-08-08T19:39:55.876Z,19.70
2017-08-08T19:42:23.365Z,19.70
2017-08-08T19:44:50.796Z,19.70
2017-08-08T19:47:18.253Z,19.70
2017-08-08T19:49:45.681Z,19.50
2017-08-08T19:52:13.208Z,19.40
2017-08-08T19:54:41.429Z,19.60
2017-08-08T19:57:08.859Z,19.60
2017-08-08T19:59:36.313Z,19.60
2017-08-08T20:02:03.816Z,19.60
2017-08-08T20:04:31.262Z,19.50
2017-08-08T20:06:58.709Z,19.40
2017-08-08T20:09:26.211Z,19.40
2017-08-08T20:11:53.665Z,19.20
2017-08-08T20:14:21.865Z,19.00
2017-08-08T20:16:49.366Z,19.00
2017-08-08T20:19:16.922Z,19.10
2017-08-08T20:21:45.117Z,19.10
2017-08-08T20:24:12.577Z,19.10
2017-08-08T20:26:40.137Z,19.00
2017-08-08T20:29:07.576Z,18.90
2017-08-08T20:31:35.022Z,18.80
2017-08-08T20:34:02.482Z,18.90
2017-08-08T20:36:29.936Z,18.80
2017-08-08T20:38:57.489Z,18.80
2017-08-08T20:41:25.838Z,18.90
2017-08-08T20:43:53.293Z,18.90
2017-08-08T20:46:23.090Z,19.00
2017-08-08T20:48:50.737Z,18.90
2017-08-08T20:51:18.277Z,18.90
2017-08-08T20:53:45.737Z,18.90
2017-08-08T20:56:13.934Z,18.90
2017-08-08T20:58:41.410Z,18.90
2017-08-08T21:01:08.857Z,18.90
2017-08-08T21:03:36.404Z,18.80
2017-08-08T21:06:03.857Z,18.80
2017-08-08T21:08:32.048Z,18.80
2017-08-08T21:10:59.606Z,18.80
2017-08-08T21:13:27.049Z,18.80
2017-08-08T21:15:54.503Z,18.70
2017-08-08T21:18:21.966Z,18.80
2017-08-08T21:20:49.545Z,18.80
2017-08-08T21:23:17.787Z,18.70
2017-08-08T21:25:45.240Z,18.60
2017-08-08T21:28:13.446Z,18.50
2017-08-08T21:30:40.898Z,18.50
2017-08-08T21:33:08.342Z,18.50
2017-08-08T21:35:35.812Z,18.50
2017-08-08T21:38:03.484Z,18.50
2017-08-08T21:40:31.837Z,18.60
2017-08-08T21:43:00.093Z,18.50
2017-08-08T21:45:27.539Z,18.50
2017-08-08T21:47:54.973Z,18.50
2017-08-08T21:50:23.200Z,18.40
2017-08-08T21:52:50.628Z,18.40
2017-08-08T21:55:18.082Z,18.40
2017-08-08T21:57:45.768Z,18.30
2017-08-08T22:00:13.192Z,18.30
2017-08-08T22:02:40.644Z,18.30
2017-08-08T22:05:08.071Z,18.30
2017-08-08T22:07:35.653Z,18.40
2017-08-08T22:10:03.901Z,18.50
2017-08-08T22:12:31.350Z,18.50
2017-08-08T22:14:58.788Z,18.60
2017-08-08T22:17:26.296Z,18.60
2017-08-08T22:19:53.742Z,18.60
2017-08-08T22:22:21.208Z,18.60
2017-08-08T22:24:48.665Z,18.60
2017-08-08T22:27:16.097Z,18.60
2017-08-08T22:29:43.532Z,18.70
2017-08-08T22:32:10.975Z,18.80
2017-08-08T22:34:38.427Z,18.80
2017-08-08T22:37:05.885Z,18.80
2017-08-08T22:39:33.319Z,18.80
2017-08-08T22:42:00.786Z,18.80
2017-08-08T22:44:28.217Z,18.80
2017-08-08T22:46:56.429Z,18.70
2017-08-08T22:49:24.000Z,18.70
2017-08-08T22:51:51.449Z,18.70
2017-08-08T22:54:18.880Z,18.70
2017-08-08T22:56:46.312Z,18.70
2017-08-08T22:59:13.749Z,18.60
2017-08-08T23:01:41.201Z,18.60
2017-08-08T23:04:08.753Z,18.70
2017-08-08T23:06:36.321Z,18.70
2017-08-08T23:09:03.749Z,18.60
2017-08-08T23:11:31.297Z,18.60
2017-08-08T23:13:59.528Z,18.40
2017-08-08T23:16:26.951Z,18.40
2017-08-08T23:18:54.410Z,18.50
2017-08-08T23:21:21.851Z,18.40
2017-08-08T23:23:49.298Z,18.40
2017-08-08T23:26:16.778Z,18.30
2017-08-08T23:28:44.278Z,18.20
2017-08-08T23:31:11.716Z,18.30
2017-08-08T23:33:39.161Z,18.30
2017-08-08T23:36:06.615Z,18.40
2017-08-08T23:38:34.063Z,18.40
2017-08-08T23:41:01.516Z,18.40
2017-08-08T23:43:28.973Z,18.50
2017-08-08T23:45:56.506Z,18.50
2017-08-08T23:48:23.959Z,18.50
2017-08-08T23:50:52.166Z,18.40
2017-08-08T23:53:19.608Z,18.40
2017-08-08T23:55:47.066Z,18.40
2017-08-08T23:58:14.507Z,18.40
